sensor_id;sensor_type;location;lat;lon;timestamp;pressure;altitude;pressure_sealevel;temperature;humidity
82951;BME280;72737;53.332;6.514;2023-09-30T00:02:06;102245.03;;;18.81;65.73
82951;BME280;72737;53.332;6.514;2023-09-30T00:04:32;102250.53;;;18.81;65.93
82951;BME280;72737;53.332;6.514;2023-09-30T00:06:57;102248.34;;;18.78;65.88
82951;BME280;72737;53.332;6.514;2023-09-30T00:09:22;102245.28;;;18.79;66.03
82951;BME280;72737;53.332;6.514;2023-09-30T00:11:48;102241.50;;;18.75;66.26
82951;BME280;72737;53.332;6.514;2023-09-30T00:14:13;102241.19;;;18.77;66.12
82951;BME280;72737;53.332;6.514;2023-09-30T00:16:39;102245.84;;;18.76;65.89
82951;BME280;72737;53.332;6.514;2023-09-30T00:19:05;102236.50;;;18.77;65.83
82951;BME280;72737;53.332;6.514;2023-09-30T00:21:31;102249.22;;;18.73;66.01
82951;BME280;72737;53.332;6.514;2023-09-30T00:23:56;102246.44;;;18.73;66.21
82951;BME280;72737;53.332;6.514;2023-09-30T00:26:22;102230.22;;;18.72;65.99
82951;BME280;72737;53.332;6.514;2023-09-30T00:28:47;102233.78;;;18.72;65.90
82951;BME280;72737;53.332;6.514;2023-09-30T00:31:13;102233.78;;;18.72;65.83
82951;BME280;72737;53.332;6.514;2023-09-30T00:33:38;102231.84;;;18.73;65.92
82951;BME280;72737;53.332;6.514;2023-09-30T00:36:10;102242.88;;;18.73;66.06
82951;BME280;72737;53.332;6.514;2023-09-30T00:38:39;102246.44;;;18.73;65.76
82951;BME280;72737;53.332;6.514;2023-09-30T00:41:05;102247.03;;;18.70;65.86
82951;BME280;72737;53.332;6.514;2023-09-30T00:43:32;102236.84;;;18.71;66.16
82951;BME280;72737;53.332;6.514;2023-09-30T00:46:28;102243.75;;;18.68;65.93
82951;BME280;72737;53.332;6.514;2023-09-30T00:48:55;102248.16;;;18.69;66.08
82951;BME280;72737;53.332;6.514;2023-09-30T00:51:22;102257.25;;;18.70;65.83
82951;BME280;72737;53.332;6.514;2023-09-30T00:53:50;102260.28;;;18.68;65.85
82951;BME280;72737;53.332;6.514;2023-09-30T00:56:17;102255.88;;;18.67;66.22
82951;BME280;72737;53.332;6.514;2023-09-30T00:58:45;102252.28;;;18.67;65.82
82951;BME280;72737;53.332;6.514;2023-09-30T01:01:11;102256.47;;;18.64;66.22
82951;BME280;72737;53.332;6.514;2023-09-30T01:03:37;102270.22;;;18.64;66.29
82951;BME280;72737;53.332;6.514;2023-09-30T01:06:03;102268.56;;;18.63;65.86
82951;BME280;72737;53.332;6.514;2023-09-30T01:08:29;102274.63;;;18.65;66.13
82951;BME280;72737;53.332;6.514;2023-09-30T01:10:55;102282.06;;;18.65;65.99
82951;BME280;72737;53.332;6.514;2023-09-30T01:13:21;102281.53;;;18.63;66.10
82951;BME280;72737;53.332;6.514;2023-09-30T01:15:47;102289.28;;;18.61;66.07
82951;BME280;72737;53.332;6.514;2023-09-30T01:18:12;102292.25;;;18.64;66.16
82951;BME280;72737;53.332;6.514;2023-09-30T01:20:38;102292.81;;;18.61;66.46
82951;BME280;72737;53.332;6.514;2023-09-30T01:23:04;102295.88;;;18.60;66.42
82951;BME280;72737;53.332;6.514;2023-09-30T01:25:30;102287.06;;;18.58;66.38
82951;BME280;72737;53.332;6.514;2023-09-30T01:27:55;102285.41;;;18.57;66.14
82951;BME280;72737;53.332;6.514;2023-09-30T01:30:23;102289.31;;;18.56;66.15
82951;BME280;72737;53.332;6.514;2023-09-30T01:32:49;102290.94;;;18.57;66.19
82951;BME280;72737;53.332;6.514;2023-09-30T01:35:14;102290.59;;;18.63;66.16
82951;BME280;72737;53.332;6.514;2023-09-30T01:37:39;102284.88;;;18.60;66.16
82951;BME280;72737;53.332;6.514;2023-09-30T01:40:06;102294.00;;;18.55;66.49
82951;BME280;72737;53.332;6.514;2023-09-30T01:42:37;102292.34;;;18.54;66.30
82951;BME280;72737;53.332;6.514;2023-09-30T01:45:03;102292.59;;;18.53;66.37
82951;BME280;72737;53.332;6.514;2023-09-30T01:47:29;102294.00;;;18.50;66.41
82951;BME280;72737;53.332;6.514;2023-09-30T01:49:54;102281.84;;;18.51;66.33
82951;BME280;72737;53.332;6.514;2023-09-30T01:52:19;102284.59;;;18.51;66.39
82951;BME280;72737;53.332;6.514;2023-09-30T01:54:45;102273.91;;;18.50;66.55
82951;BME280;72737;53.332;6.514;2023-09-30T01:57:10;102282.16;;;18.50;66.45
82951;BME280;72737;53.332;6.514;2023-09-30T01:59:36;102284.09;;;18.49;66.41
82951;BME280;72737;53.332;6.514;2023-09-30T02:02:01;102281.09;;;18.46;66.53
82951;BME280;72737;53.332;6.514;2023-09-30T02:04:26;102296.22;;;18.48;66.46
82951;BME280;72737;53.332;6.514;2023-09-30T02:06:52;102296.78;;;18.45;66.46
82951;BME280;72737;53.332;6.514;2023-09-30T02:09:17;102289.38;;;18.46;66.47
82951;BME280;72737;53.332;6.514;2023-09-30T02:11:43;102285.78;;;18.45;66.44
82951;BME280;72737;53.332;6.514;2023-09-30T02:14:09;102287.41;;;18.46;66.54
82951;BME280;72737;53.332;6.514;2023-09-30T02:16:40;102294.03;;;18.45;66.56
82951;BME280;72737;53.332;6.514;2023-09-30T02:19:05;102299.81;;;18.43;66.66
82951;BME280;72737;53.332;6.514;2023-09-30T02:21:32;102301.75;;;18.43;66.68
82951;BME280;72737;53.332;6.514;2023-09-30T02:23:57;102294.31;;;18.43;66.47
82951;BME280;72737;53.332;6.514;2023-09-30T02:26:22;102292.16;;;18.40;66.44
82951;BME280;72737;53.332;6.514;2023-09-30T02:28:51;102290.50;;;18.39;66.53
82951;BME280;72737;53.332;6.514;2023-09-30T02:31:17;102295.19;;;18.39;66.70
82951;BME280;72737;53.332;6.514;2023-09-30T02:33:43;102300.09;;;18.42;66.51
82951;BME280;72737;53.332;6.514;2023-09-30T02:36:09;102295.19;;;18.39;66.49
82951;BME280;72737;53.332;6.514;2023-09-30T02:38:37;102294.09;;;18.40;66.41
82951;BME280;72737;53.332;6.514;2023-09-30T02:41:03;102292.44;;;18.39;66.71
82951;BME280;72737;53.332;6.514;2023-09-30T02:43:29;102286.69;;;18.35;66.87
82951;BME280;72737;53.332;6.514;2023-09-30T02:45:54;102286.38;;;18.37;66.70
82951;BME280;72737;53.332;6.514;2023-09-30T02:48:20;102281.97;;;18.36;66.97
82951;BME280;72737;53.332;6.514;2023-09-30T02:50:45;102285.56;;;18.36;66.45
82951;BME280;72737;53.332;6.514;2023-09-30T02:53:11;102284.72;;;18.36;66.36
82951;BME280;72737;53.332;6.514;2023-09-30T02:55:38;102293.00;;;18.36;66.80
82951;BME280;72737;53.332;6.514;2023-09-30T02:58:04;102290.81;;;18.33;66.77
82951;BME280;72737;53.332;6.514;2023-09-30T03:00:29;102293.56;;;18.33;66.96
82951;BME280;72737;53.332;6.514;2023-09-30T03:03:00;102293.56;;;18.33;66.84
82951;BME280;72737;53.332;6.514;2023-09-30T03:05:25;102287.53;;;18.31;66.62
82951;BME280;72737;53.332;6.514;2023-09-30T03:07:52;102287.53;;;18.31;66.59
82951;BME280;72737;53.332;6.514;2023-09-30T03:10:18;102284.25;;;18.29;66.83
82951;BME280;72737;53.332;6.514;2023-09-30T03:12:54;102284.25;;;18.29;66.44
82951;BME280;72737;53.332;6.514;2023-09-30T03:15:20;102286.72;;;18.30;66.59
82951;BME280;72737;53.332;6.514;2023-09-30T03:17:45;102287.56;;;18.26;66.68
82951;BME280;72737;53.332;6.514;2023-09-30T03:20:11;102292.50;;;18.29;66.89
82951;BME280;72737;53.332;6.514;2023-09-30T03:22:44;102284.25;;;18.29;66.65
82951;BME280;72737;53.332;6.514;2023-09-30T03:25:12;102289.22;;;18.27;66.67
82951;BME280;72737;53.332;6.514;2023-09-30T03:27:40;102295.53;;;18.27;66.45
82951;BME280;72737;53.332;6.514;2023-09-30T03:30:07;102297.47;;;18.27;66.57
82951;BME280;72737;53.332;6.514;2023-09-30T03:32:33;102299.69;;;18.25;66.76
82951;BME280;72737;53.332;6.514;2023-09-30T03:34:59;102297.78;;;18.25;66.72
82951;BME280;72737;53.332;6.514;2023-09-30T03:37:27;102296.94;;;18.25;66.83
82951;BME280;72737;53.332;6.514;2023-09-30T03:39:55;102298.88;;;18.24;66.74
82951;BME280;72737;53.332;6.514;2023-09-30T03:42:21;102292.00;;;18.22;66.94
82951;BME280;72737;53.332;6.514;2023-09-30T03:44:47;102304.38;;;18.24;66.84
82951;BME280;72737;53.332;6.514;2023-09-30T03:47:14;102301.63;;;18.24;66.70
82951;BME280;72737;53.332;6.514;2023-09-30T03:49:41;102289.78;;;18.24;66.46
82951;BME280;72737;53.332;6.514;2023-09-30T03:52:07;102295.56;;;18.22;66.86
82951;BME280;72737;53.332;6.514;2023-09-30T03:54:33;102298.91;;;18.19;66.72
82951;BME280;72737;53.332;6.514;2023-09-30T03:56:59;102300.56;;;18.20;66.55
82951;BME280;72737;53.332;6.514;2023-09-30T03:59:26;102295.34;;;18.19;66.66
82951;BME280;72737;53.332;6.514;2023-09-30T04:01:52;102300.00;;;18.18;66.61
82951;BME280;72737;53.332;6.514;2023-09-30T04:04:19;102305.50;;;18.18;66.63
82951;BME280;72737;53.332;6.514;2023-09-30T04:06:46;102295.09;;;18.15;66.78
82951;BME280;72737;53.332;6.514;2023-09-30T04:09:15;102288.75;;;18.15;66.98
82951;BME280;72737;53.332;6.514;2023-09-30T04:11:41;102293.13;;;18.16;66.63
82951;BME280;72737;53.332;6.514;2023-09-30T04:14:08;102282.97;;;18.11;66.52
82951;BME280;72737;53.332;6.514;2023-09-30T04:16:34;102296.72;;;18.16;66.85
82951;BME280;72737;53.332;6.514;2023-09-30T04:19:01;102292.63;;;18.14;66.74
82951;BME280;72737;53.332;6.514;2023-09-30T04:21:26;102281.06;;;18.12;66.57
82951;BME280;72737;53.332;6.514;2023-09-30T04:23:53;102290.13;;;18.12;66.65
82951;BME280;72737;53.332;6.514;2023-09-30T04:26:19;102295.63;;;18.12;66.58
82951;BME280;72737;53.332;6.514;2023-09-30T04:28:45;102295.38;;;18.14;66.47
82951;BME280;72737;53.332;6.514;2023-09-30T04:31:10;102295.63;;;18.12;66.61
82951;BME280;72737;53.332;6.514;2023-09-30T04:33:38;102297.28;;;18.13;66.79
82951;BME280;72737;53.332;6.514;2023-09-30T04:36:06;102300.63;;;18.10;66.93
82951;BME280;72737;53.332;6.514;2023-09-30T04:38:34;102298.16;;;18.09;66.58
82951;BME280;72737;53.332;6.514;2023-09-30T04:41:02;102302.56;;;18.10;66.81
82951;BME280;72737;53.332;6.514;2023-09-30T04:43:28;102313.56;;;18.10;66.61
82951;BME280;72737;53.332;6.514;2023-09-30T04:45:55;102318.22;;;18.09;66.51
82951;BME280;72737;53.332;6.514;2023-09-30T04:48:22;102317.41;;;18.09;66.71
82951;BME280;72737;53.332;6.514;2023-09-30T04:50:48;102322.91;;;18.09;66.67
82951;BME280;72737;53.332;6.514;2023-09-30T04:53:13;102323.72;;;18.09;66.87
82951;BME280;72737;53.332;6.514;2023-09-30T04:55:41;102329.50;;;18.08;66.95
82951;BME280;72737;53.332;6.514;2023-09-30T04:58:06;102335.28;;;18.06;66.65
82951;BME280;72737;53.332;6.514;2023-09-30T05:00:32;102338.59;;;18.08;66.79
82951;BME280;72737;53.332;6.514;2023-09-30T05:02:58;102344.66;;;18.05;66.62
82951;BME280;72737;53.332;6.514;2023-09-30T05:05:24;102340.00;;;18.06;66.90
82951;BME280;72737;53.332;6.514;2023-09-30T05:07:49;102344.66;;;18.05;66.80
82951;BME280;72737;53.332;6.514;2023-09-30T05:10:15;102346.28;;;18.06;66.73
82951;BME280;72737;53.332;6.514;2023-09-30T05:12:44;102351.28;;;18.04;66.93
82951;BME280;72737;53.332;6.514;2023-09-30T05:15:14;102352.38;;;18.03;66.88
82951;BME280;72737;53.332;6.514;2023-09-30T05:17:45;102354.56;;;18.01;66.91
82951;BME280;72737;53.332;6.514;2023-09-30T05:20:11;102359.56;;;17.99;66.87
82951;BME280;72737;53.332;6.514;2023-09-30T05:22:40;102357.91;;;17.98;66.98
82951;BME280;72737;53.332;6.514;2023-09-30T05:25:08;102362.28;;;18.04;66.96
82951;BME280;72737;53.332;6.514;2023-09-30T05:27:34;102362.31;;;17.99;66.95
82951;BME280;72737;53.332;6.514;2023-09-30T05:29:59;102370.28;;;18.00;66.95
82951;BME280;72737;53.332;6.514;2023-09-30T05:32:25;102367.81;;;17.99;66.83
82951;BME280;72737;53.332;6.514;2023-09-30T05:34:52;102362.03;;;18.00;66.92
82951;BME280;72737;53.332;6.514;2023-09-30T05:37:19;102370.81;;;17.97;67.11
82951;BME280;72737;53.332;6.514;2023-09-30T05:39:47;102359.56;;;17.99;66.96
82951;BME280;72737;53.332;6.514;2023-09-30T05:42:15;102366.97;;;17.98;66.74
82951;BME280;72737;53.332;6.514;2023-09-30T05:44:40;102372.47;;;17.98;66.78
82951;BME280;72737;53.332;6.514;2023-09-30T05:47:08;102367.56;;;17.95;67.03
82951;BME280;72737;53.332;6.514;2023-09-30T05:49:33;102373.84;;;17.96;67.00
82951;BME280;72737;53.332;6.514;2023-09-30T05:51:59;102371.41;;;17.94;66.93
82951;BME280;72737;53.332;6.514;2023-09-30T05:54:24;102371.41;;;17.94;66.92
82951;BME280;72737;53.332;6.514;2023-09-30T05:56:50;102376.91;;;17.94;66.83
82951;BME280;72737;53.332;6.514;2023-09-30T05:59:16;102364.25;;;17.93;66.93
82951;BME280;72737;53.332;6.514;2023-09-30T06:01:41;102367.28;;;17.92;66.84
82951;BME280;72737;53.332;6.514;2023-09-30T06:04:08;102376.91;;;17.94;67.10
82951;BME280;72737;53.332;6.514;2023-09-30T06:06:33;102378.00;;;17.93;66.96
82951;BME280;72737;53.332;6.514;2023-09-30T06:08:58;102382.94;;;17.91;66.92
82951;BME280;72737;53.332;6.514;2023-09-30T06:11:24;102376.34;;;17.92;66.98
82951;BME280;72737;53.332;6.514;2023-09-30T06:13:51;102369.75;;;17.93;66.74
82951;BME280;72737;53.332;6.514;2023-09-30T06:16:18;102378.56;;;17.95;67.01
82951;BME280;72737;53.332;6.514;2023-09-30T06:18:44;102381.59;;;17.94;67.07
82951;BME280;72737;53.332;6.514;2023-09-30T06:21:11;102380.47;;;17.95;66.96
82951;BME280;72737;53.332;6.514;2023-09-30T06:23:36;102382.94;;;17.91;66.90
82951;BME280;72737;53.332;6.514;2023-09-30T06:26:02;102387.63;;;17.91;66.95
82951;BME280;72737;53.332;6.514;2023-09-30T06:28:28;102381.34;;;17.90;66.97
82951;BME280;72737;53.332;6.514;2023-09-30T06:30:57;102378.03;;;17.88;67.09
82951;BME280;72737;53.332;6.514;2023-09-30T06:33:23;102389.84;;;17.89;67.24
82951;BME280;72737;53.332;6.514;2023-09-30T06:35:48;102398.38;;;17.87;67.19
82951;BME280;72737;53.332;6.514;2023-09-30T06:38:18;102400.03;;;17.88;67.22
82951;BME280;72737;53.332;6.514;2023-09-30T06:40:44;102397.28;;;17.88;67.07
82951;BME280;72737;53.332;6.514;2023-09-30T06:43:12;102398.94;;;17.89;67.26
82951;BME280;72737;53.332;6.514;2023-09-30T06:45:37;102398.38;;;17.87;67.18
82951;BME280;72737;53.332;6.514;2023-09-30T06:48:10;102403.84;;;17.97;66.92
82951;BME280;72737;53.332;6.514;2023-09-30T06:50:46;102402.75;;;17.93;67.24
82951;BME280;72737;53.332;6.514;2023-09-30T06:53:14;102409.63;;;17.91;67.14
82951;BME280;72737;53.332;6.514;2023-09-30T06:55:41;102420.63;;;17.91;67.06
82951;BME280;72737;53.332;6.514;2023-09-30T06:58:08;102426.44;;;17.89;67.08
82951;BME280;72737;53.332;6.514;2023-09-30T07:00:37;102437.97;;;17.91;67.18
82951;BME280;72737;53.332;6.514;2023-09-30T07:03:03;102433.84;;;17.89;67.01
82951;BME280;72737;53.332;6.514;2023-09-30T07:05:29;102430.00;;;17.90;67.33
82951;BME280;72737;53.332;6.514;2023-09-30T07:07:55;102435.50;;;17.90;67.00
82951;BME280;72737;53.332;6.514;2023-09-30T07:10:20;102428.09;;;17.90;67.29
82951;BME280;72737;53.332;6.514;2023-09-30T07:12:46;102423.69;;;17.89;67.31
82951;BME280;72737;53.332;6.514;2023-09-30T07:15:11;102426.97;;;17.91;67.45
82951;BME280;72737;53.332;6.514;2023-09-30T07:17:39;102429.44;;;17.93;67.42
82951;BME280;72737;53.332;6.514;2023-09-30T07:20:05;102436.31;;;17.95;67.48
82951;BME280;72737;53.332;6.514;2023-09-30T07:22:35;102443.75;;;17.95;67.58
82951;BME280;72737;53.332;6.514;2023-09-30T07:25:01;102438.25;;;17.95;67.19
82951;BME280;72737;53.332;6.514;2023-09-30T07:27:26;102447.31;;;18.00;67.15
82951;BME280;72737;53.332;6.514;2023-09-30T07:29:52;102452.53;;;17.97;67.47
82951;BME280;72737;53.332;6.514;2023-09-30T07:32:17;102455.56;;;17.95;67.34
82951;BME280;72737;53.332;6.514;2023-09-30T07:34:43;102452.28;;;17.93;67.25
82951;BME280;72737;53.332;6.514;2023-09-30T07:37:09;102453.38;;;17.92;66.95
82951;BME280;72737;53.332;6.514;2023-09-30T07:39:37;102459.44;;;17.94;66.90
82951;BME280;72737;53.332;6.514;2023-09-30T07:42:02;102461.63;;;17.92;67.11
82951;BME280;72737;53.332;6.514;2023-09-30T07:44:28;102465.19;;;17.93;67.29
82951;BME280;72737;53.332;6.514;2023-09-30T07:46:53;102458.88;;;17.92;67.19
82951;BME280;72737;53.332;6.514;2023-09-30T07:49:19;102471.53;;;17.93;67.09
82951;BME280;72737;53.332;6.514;2023-09-30T07:51:45;102469.59;;;17.94;67.24
82951;BME280;72737;53.332;6.514;2023-09-30T07:54:11;102472.06;;;17.95;67.28
82951;BME280;72737;53.332;6.514;2023-09-30T07:56:37;102470.69;;;17.93;67.10
82951;BME280;72737;53.332;6.514;2023-09-30T07:59:02;102467.13;;;17.92;67.58
82951;BME280;72737;53.332;6.514;2023-09-30T08:01:28;102472.34;;;17.94;67.35
82951;BME280;72737;53.332;6.514;2023-09-30T08:03:55;102476.75;;;17.95;67.37
82951;BME280;72737;53.332;6.514;2023-09-30T08:06:21;102472.59;;;17.97;67.30
82951;BME280;72737;53.332;6.514;2023-09-30T08:08:46;102470.97;;;17.91;67.49
82951;BME280;72737;53.332;6.514;2023-09-30T08:11:12;102476.19;;;17.98;67.38
82951;BME280;72737;53.332;6.514;2023-09-30T08:13:37;102480.03;;;17.97;67.63
82951;BME280;72737;53.332;6.514;2023-09-30T08:16:03;102475.91;;;17.99;67.72
82951;BME280;72737;53.332;6.514;2023-09-30T08:18:28;102466.56;;;18.00;67.43
82951;BME280;72737;53.332;6.514;2023-09-30T08:20:54;102470.94;;;18.01;67.55
82951;BME280;72737;53.332;6.514;2023-09-30T08:23:19;102477.81;;;18.04;67.45
82951;BME280;72737;53.332;6.514;2023-09-30T08:25:46;102472.84;;;18.06;67.45
82951;BME280;72737;53.332;6.514;2023-09-30T08:28:12;102476.97;;;18.09;67.52
82951;BME280;72737;53.332;6.514;2023-09-30T08:30:37;102473.66;;;18.07;67.62
82951;BME280;72737;53.332;6.514;2023-09-30T08:33:03;102476.44;;;18.01;67.57
82951;BME280;72737;53.332;6.514;2023-09-30T08:35:30;102481.41;;;18.05;67.83
82951;BME280;72737;53.332;6.514;2023-09-30T08:37:57;102476.16;;;18.03;67.86
82951;BME280;72737;53.332;6.514;2023-09-30T08:40:23;102479.47;;;18.05;67.78
82951;BME280;72737;53.332;6.514;2023-09-30T08:42:51;102480.81;;;18.08;67.79
82951;BME280;72737;53.332;6.514;2023-09-30T08:45:17;102480.81;;;18.13;67.34
82951;BME280;72737;53.332;6.514;2023-09-30T08:47:43;102479.16;;;18.12;67.73
82951;BME280;72737;53.332;6.514;2023-09-30T08:50:09;102486.88;;;18.15;67.37
82951;BME280;72737;53.332;6.514;2023-09-30T08:52:37;102489.63;;;18.10;67.58
82951;BME280;72737;53.332;6.514;2023-09-30T08:55:04;102492.13;;;18.01;67.47
82951;BME280;72737;53.332;6.514;2023-09-30T08:57:29;102490.19;;;18.01;67.33
82951;BME280;72737;53.332;6.514;2023-09-30T08:59:55;102495.41;;;18.08;67.26
82951;BME280;72737;53.332;6.514;2023-09-30T09:02:21;102495.16;;;17.99;67.36
82951;BME280;72737;53.332;6.514;2023-09-30T09:04:47;102491.84;;;18.02;67.10
82951;BME280;72737;53.332;6.514;2023-09-30T09:07:12;102496.81;;;18.06;67.44
82951;BME280;72737;53.332;6.514;2023-09-30T09:09:38;102492.66;;;18.08;66.89
82951;BME280;72737;53.332;6.514;2023-09-30T09:12:03;102491.28;;;18.11;66.89
82951;BME280;72737;53.332;6.514;2023-09-30T09:14:40;102501.47;;;18.10;66.93
82951;BME280;72737;53.332;6.514;2023-09-30T09:17:07;102487.16;;;18.08;66.88
82951;BME280;72737;53.332;6.514;2023-09-30T09:19:33;102492.38;;;18.10;66.42
82951;BME280;72737;53.332;6.514;2023-09-30T09:22:00;102491.25;;;18.16;66.30
82951;BME280;72737;53.332;6.514;2023-09-30T09:27:08;102497.88;;;18.15;66.71
82951;BME280;72737;53.332;6.514;2023-09-30T09:29:35;102496.19;;;18.24;66.59
82951;BME280;72737;53.332;6.514;2023-09-30T09:34:36;102506.09;;;18.25;66.00
82951;BME280;72737;53.332;6.514;2023-09-30T09:39:57;102513.50;;;18.29;66.28
82951;BME280;72737;53.332;6.514;2023-09-30T09:42:32;102510.44;;;18.36;66.21
82951;BME280;72737;53.332;6.514;2023-09-30T09:45:01;102501.06;;;18.42;65.77
82951;BME280;72737;53.332;6.514;2023-09-30T09:47:29;102493.38;;;18.39;65.53
82951;BME280;72737;53.332;6.514;2023-09-30T09:49:57;102497.75;;;18.45;64.97
82951;BME280;72737;53.332;6.514;2023-09-30T09:52:23;102514.56;;;18.38;64.96
82951;BME280;72737;53.332;6.514;2023-09-30T09:54:50;102517.56;;;18.42;64.86
82951;BME280;72737;53.332;6.514;2023-09-30T09:57:18;102521.69;;;18.50;64.69
82951;BME280;72737;53.332;6.514;2023-09-30T09:59:45;102525.81;;;18.47;65.16
82951;BME280;72737;53.332;6.514;2023-09-30T10:02:13;102521.09;;;18.58;64.97
82951;BME280;72737;53.332;6.514;2023-09-30T10:04:40;102520.78;;;18.69;64.22
82951;BME280;72737;53.332;6.514;2023-09-30T10:07:07;102528.13;;;18.84;65.04
82951;BME280;72737;53.332;6.514;2023-09-30T10:09:34;102531.72;;;18.84;64.44
82951;BME280;72737;53.332;6.514;2023-09-30T10:12:01;102539.47;;;18.77;64.59
82951;BME280;72737;53.332;6.514;2023-09-30T10:14:33;102535.06;;;18.76;64.18
82951;BME280;72737;53.332;6.514;2023-09-30T10:16:59;102531.47;;;18.81;63.93
82951;BME280;72737;53.332;6.514;2023-09-30T10:19:25;102525.59;;;18.93;63.49
82951;BME280;72737;53.332;6.514;2023-09-30T10:24:47;102521.22;;;18.86;62.52
82951;BME280;72737;53.332;6.514;2023-09-30T10:27:34;102527.28;;;18.89;61.90
82951;BME280;72737;53.332;6.514;2023-09-30T10:40:51;102531.50;;;19.20;60.76
82951;BME280;72737;53.332;6.514;2023-09-30T10:43:34;102529.53;;;19.25;60.88
82951;BME280;72737;53.332;6.514;2023-09-30T10:46:01;102528.34;;;19.32;60.83
82951;BME280;72737;53.332;6.514;2023-09-30T10:50:58;102529.09;;;19.47;59.81
82951;BME280;72737;53.332;6.514;2023-09-30T10:53:26;102539.66;;;19.35;60.32
82951;BME280;72737;53.332;6.514;2023-09-30T10:55:59;102543.13;;;19.51;59.85
82951;BME280;72737;53.332;6.514;2023-09-30T10:58:47;102529.53;;;19.59;59.34
82951;BME280;72737;53.332;6.514;2023-09-30T11:01:16;102527.59;;;19.60;59.63
82951;BME280;72737;53.332;6.514;2023-09-30T11:03:42;102531.19;;;19.60;59.35
82951;BME280;72737;53.332;6.514;2023-09-30T11:06:11;102526.38;;;19.37;59.88
82951;BME280;72737;53.332;6.514;2023-09-30T11:08:41;102521.19;;;19.36;59.68
82951;BME280;72737;53.332;6.514;2023-09-30T11:11:09;102519.72;;;19.43;59.78
82951;BME280;72737;53.332;6.514;2023-09-30T11:13:36;102519.16;;;19.51;58.31
82951;BME280;72737;53.332;6.514;2023-09-30T11:16:03;102523.22;;;19.20;59.19
82951;BME280;72737;53.332;6.514;2023-09-30T11:18:30;102517.81;;;19.39;59.06
82951;BME280;72737;53.332;6.514;2023-09-30T11:21:08;102511.00;;;19.31;58.41
82951;BME280;72737;53.332;6.514;2023-09-30T11:23:35;102500.69;;;19.42;57.87
82951;BME280;72737;53.332;6.514;2023-09-30T11:26:01;102502.34;;;19.43;58.37
82951;BME280;72737;53.332;6.514;2023-09-30T11:28:35;102494.06;;;19.43;58.18
82951;BME280;72737;53.332;6.514;2023-09-30T11:31:01;102492.13;;;19.48;57.70
82951;BME280;72737;53.332;6.514;2023-09-30T11:33:27;102492.31;;;19.57;57.53
82951;BME280;72737;53.332;6.514;2023-09-30T11:36:01;102489.38;;;19.48;57.94
82951;BME280;72737;53.332;6.514;2023-09-30T11:38:30;102489.44;;;19.38;57.67
82951;BME280;72737;53.332;6.514;2023-09-30T11:41:03;102487.47;;;19.44;58.03
82951;BME280;72737;53.332;6.514;2023-09-30T11:43:33;102488.03;;;19.46;57.86
82951;BME280;72737;53.332;6.514;2023-09-30T11:46:09;102496.53;;;19.49;57.96
82951;BME280;72737;53.332;6.514;2023-09-30T11:48:58;102495.94;;;19.52;58.47
82951;BME280;72737;53.332;6.514;2023-09-30T11:51:22;102494.88;;;19.48;57.89
82951;BME280;72737;53.332;6.514;2023-09-30T11:53:52;102494.38;;;19.41;57.73
82951;BME280;72737;53.332;6.514;2023-09-30T11:56:19;102498.53;;;19.39;58.34
82951;BME280;72737;53.332;6.514;2023-09-30T11:58:44;102495.78;;;19.39;58.42
82951;BME280;72737;53.332;6.514;2023-09-30T12:01:11;102495.78;;;19.39;58.30
82951;BME280;72737;53.332;6.514;2023-09-30T12:03:39;102499.34;;;19.39;57.96
82951;BME280;72737;53.332;6.514;2023-09-30T12:06:08;102500.22;;;19.35;57.30
82951;BME280;72737;53.332;6.514;2023-09-30T12:08:39;102503.53;;;19.32;57.13
82951;BME280;72737;53.332;6.514;2023-09-30T12:11:05;102501.66;;;19.27;57.62
82951;BME280;72737;53.332;6.514;2023-09-30T12:13:31;102502.19;;;19.29;56.92
82951;BME280;72737;53.332;6.514;2023-09-30T12:15:56;102506.88;;;19.28;56.13
82951;BME280;72737;53.332;6.514;2023-09-30T12:18:22;102496.69;;;19.29;56.71
82951;BME280;72737;53.332;6.514;2023-09-30T12:20:50;102500.50;;;19.33;55.97
82951;BME280;72737;53.332;6.514;2023-09-30T12:23:17;102501.59;;;19.32;56.50
82951;BME280;72737;53.332;6.514;2023-09-30T12:25:43;102506.84;;;19.34;56.53
82951;BME280;72737;53.332;6.514;2023-09-30T12:28:09;102512.31;;;19.39;56.58
82951;BME280;72737;53.332;6.514;2023-09-30T12:30:34;102503.75;;;19.40;55.99
82951;BME280;72737;53.332;6.514;2023-09-30T12:33:00;102508.72;;;19.38;56.59
82951;BME280;72737;53.332;6.514;2023-09-30T12:35:26;102508.22;;;19.36;56.33
82951;BME280;72737;53.332;6.514;2023-09-30T12:37:51;102505.97;;;19.38;56.29
82951;BME280;72737;53.332;6.514;2023-09-30T12:40:17;102492.22;;;19.33;56.52
82951;BME280;72737;53.332;6.514;2023-09-30T12:42:43;102499.41;;;19.34;56.83
82951;BME280;72737;53.332;6.514;2023-09-30T12:45:10;102502.38;;;19.38;56.08
82951;BME280;72737;53.332;6.514;2023-09-30T12:47:35;102502.66;;;19.46;56.10
82951;BME280;72737;53.332;6.514;2023-09-30T12:50:01;102493.53;;;19.46;55.37
82951;BME280;72737;53.332;6.514;2023-09-30T12:52:26;102492.75;;;19.40;54.74
82951;BME280;72737;53.332;6.514;2023-09-30T12:54:52;102483.34;;;19.41;54.36
82951;BME280;72737;53.332;6.514;2023-09-30T12:57:17;102483.41;;;19.36;54.87
82951;BME280;72737;53.332;6.514;2023-09-30T12:59:44;102474.31;;;19.36;55.59
82951;BME280;72737;53.332;6.514;2023-09-30T13:02:14;102486.41;;;19.40;55.72
82951;BME280;72737;53.332;6.514;2023-09-30T13:04:39;102482.53;;;19.41;55.99
82951;BME280;72737;53.332;6.514;2023-09-30T13:07:10;102478.63;;;19.42;56.11
82951;BME280;72737;53.332;6.514;2023-09-30T13:09:36;102472.31;;;19.41;55.89
82951;BME280;72737;53.332;6.514;2023-09-30T13:12:03;102472.81;;;19.48;56.21
82951;BME280;72737;53.332;6.514;2023-09-30T13:14:28;102476.66;;;19.52;55.64